Sarandi, Brazil
Current Conditions -  °F | °C
As of 11:00 AM on Thursday 30 Oct 2014 (Local Time) from SBPF Reporting Station
Broken Clouds Broken Clouds  
Wind Chill: 64°   Ceiling: 8000
Heat Index: 64°   Visibility: 6mi
Dew Point: 61°   Wind: 12mph
Humidity: 88%   Direction: 80°E
Pressure: 29.85"   Gusts: NA
Location:  27.94°S, 52.92°W
Report Text: SBPF 301300Z 08010KT 9999 SCT045 SCT070 BKN080 18/16 Q1011
Loading
Personal Weather Stations






























Interactive Weather Map
Tropical Storm Tracking
New forecast layout! Learn more

10-Day Weather Forecast

Advertisements
Track Severe Weather on mobile